createdAt,value
2018-06-22T00:03:38.657Z,23.47
2018-06-22T00:08:17.426Z,23.83
2018-06-22T00:12:56.400Z,23.59
2018-06-22T00:17:35.157Z,23.61
2018-06-22T00:22:14.988Z,23.74
2018-06-22T00:26:53.638Z,23.73
2018-06-22T00:31:33.551Z,23.58
2018-06-22T00:36:12.177Z,23.45
2018-06-22T00:40:54.847Z,22.73
2018-06-22T00:45:33.463Z,22.17
2018-06-22T00:50:16.029Z,22.33
2018-06-22T00:54:54.728Z,22.57
2018-06-22T00:59:38.723Z,22.73
2018-06-22T01:04:17.439Z,22.57
2018-06-22T01:08:59.940Z,22.25
2018-06-22T01:13:39.046Z,22.46
2018-06-22T01:18:18.713Z,22.22
2018-06-22T01:22:57.349Z,22.09
2018-06-22T01:27:36.018Z,22.60
2018-06-22T01:32:18.235Z,22.35
2018-06-22T01:36:56.812Z,22.49
2018-06-22T01:41:36.612Z,22.71
2018-06-22T01:46:15.347Z,22.11
2018-06-22T01:50:56.875Z,22.03
2018-06-22T01:55:35.391Z,22.51
2018-06-22T02:00:17.504Z,22.85
2018-06-22T02:04:56.004Z,22.13
2018-06-22T02:09:35.804Z,22.53
2018-06-22T02:14:14.377Z,22.82
2018-06-22T02:18:58.728Z,22.24
2018-06-22T02:23:37.248Z,21.69
2018-06-22T02:28:16.049Z,22.21
2018-06-22T02:32:54.673Z,22.43
2018-06-22T02:37:33.376Z,22.60
2018-06-22T02:42:12.018Z,22.80
2018-06-22T02:46:50.478Z,22.92
2018-06-22T02:51:29.965Z,22.65
2018-06-22T02:56:08.452Z,22.56
2018-06-22T03:00:51.607Z,22.61
2018-06-22T03:05:30.114Z,22.51
2018-06-22T03:10:12.310Z,22.57
2018-06-22T03:14:50.666Z,22.09
2018-06-22T03:19:29.347Z,22.71
2018-06-22T03:24:07.786Z,22.58
2018-06-22T03:28:47.447Z,22.84
2018-06-22T03:33:26.042Z,22.86
2018-06-22T03:38:08.628Z,23.08
2018-06-22T03:42:47.221Z,22.94
2018-06-22T03:52:03.634Z,23.36
2018-06-22T03:56:42.273Z,23.51
2018-06-22T04:01:22.047Z,23.25
2018-06-22T04:06:00.718Z,23.22
2018-06-22T04:10:42.436Z,23.53
2018-06-22T04:15:21.121Z,23.75
2018-06-22T04:20:00.751Z,23.86
2018-06-22T04:24:39.362Z,23.38
2018-06-22T04:29:21.102Z,22.54
2018-06-22T04:33:59.732Z,23.34
2018-06-22T04:38:39.370Z,23.19
2018-06-22T04:43:17.820Z,23.55
2018-06-22T04:47:59.849Z,23.30
2018-06-22T04:52:38.394Z,23.82
2018-06-22T04:57:18.188Z,24.12
2018-06-22T05:01:56.805Z,23.87
2018-06-22T05:06:35.370Z,23.93
2018-06-22T05:11:17.041Z,24.25
2018-06-22T05:15:56.141Z,24.27
2018-06-22T05:20:38.291Z,23.42
2018-06-22T05:25:16.785Z,23.93
2018-06-22T05:29:59.747Z,24.10
2018-06-22T05:34:38.557Z,24.17
2018-06-22T05:39:17.299Z,24.20
2018-06-22T05:43:55.834Z,24.13
2018-06-22T05:48:37.433Z,24.23
2018-06-22T05:53:15.943Z,24.35
2018-06-22T05:57:55.744Z,24.42
2018-06-22T06:02:34.209Z,24.50
2018-06-22T06:07:13.817Z,24.53
2018-06-22T06:11:52.318Z,24.62
2018-06-22T06:16:30.905Z,24.66
2018-06-22T06:21:10.573Z,24.79
2018-06-22T06:25:49.133Z,24.93
2018-06-22T06:30:33.802Z,25.09
2018-06-22T06:35:12.362Z,25.27
2018-06-22T06:39:56.602Z,25.32
2018-06-22T06:44:35.142Z,25.61
2018-06-22T06:49:17.840Z,26.01
2018-06-22T06:53:56.441Z,26.10
2018-06-22T06:58:34.921Z,26.34
2018-06-22T07:03:13.576Z,26.45
2018-06-22T07:07:55.934Z,26.50
2018-06-22T07:12:34.379Z,26.59
2018-06-22T07:17:17.753Z,26.61
2018-06-22T07:21:56.312Z,26.80
2018-06-22T07:26:34.650Z,26.87
2018-06-22T07:31:16.646Z,26.78
2018-06-22T07:35:55.130Z,27.06
2018-06-22T07:40:36.889Z,27.14
2018-06-22T07:45:15.519Z,27.41
2018-06-22T07:49:54.884Z,27.49
2018-06-22T07:54:33.461Z,27.62
2018-06-22T07:59:15.438Z,27.81
2018-06-22T08:03:53.940Z,28.11
2018-06-22T08:08:36.048Z,28.25
2018-06-22T08:13:14.485Z,28.26
2018-06-22T08:17:53.154Z,28.26
2018-06-22T08:22:31.737Z,28.21
2018-06-22T08:27:11.238Z,28.10
2018-06-22T08:31:49.677Z,28.50
2018-06-22T08:36:28.223Z,28.61
2018-06-22T08:41:07.801Z,28.72
2018-06-22T08:45:46.352Z,28.90
2018-06-22T08:50:28.536Z,29.11
2018-06-22T08:55:07.114Z,29.08
2018-06-22T08:59:50.954Z,29.19
2018-06-22T09:04:29.568Z,29.31
2018-06-22T09:09:08.977Z,29.22
2018-06-22T09:13:47.590Z,29.26
2018-06-22T09:18:26.214Z,29.55
2018-06-22T09:23:04.849Z,29.54
2018-06-22T09:27:44.723Z,29.47
2018-06-22T09:32:23.301Z,29.58
2018-06-22T09:37:02.866Z,29.62
2018-06-22T09:41:41.513Z,29.57
2018-06-22T09:46:19.875Z,29.82
2018-06-22T09:51:01.933Z,30.46
2018-06-22T09:55:40.517Z,30.57
2018-06-22T10:00:23.621Z,29.76
2018-06-22T10:05:02.144Z,29.75
2018-06-22T10:09:44.463Z,29.61
2018-06-22T10:14:23.061Z,29.66
2018-06-22T10:19:01.833Z,29.79
2018-06-22T10:23:40.448Z,29.87
2018-06-22T10:28:20.228Z,29.70
2018-06-22T10:32:58.777Z,29.26
2018-06-22T10:37:40.629Z,28.54
2018-06-22T10:42:19.601Z,28.70
2018-06-22T10:46:58.469Z,28.49
2018-06-22T10:51:37.034Z,28.27
2018-06-22T10:56:15.387Z,28.13
2018-06-22T11:00:53.714Z,28.06
2018-06-22T11:05:32.180Z,27.85
2018-06-22T11:10:10.730Z,27.75
2018-06-22T11:14:49.289Z,27.47
2018-06-22T11:19:33.763Z,27.41
2018-06-22T11:24:12.353Z,27.04
2018-06-22T11:28:51.072Z,26.80
2018-06-22T11:33:29.874Z,25.79
2018-06-22T11:38:11.411Z,25.93
2018-06-22T11:42:49.942Z,25.73
2018-06-22T11:47:34.803Z,25.88
2018-06-22T11:52:13.362Z,25.80
2018-06-22T11:56:55.425Z,26.25
2018-06-22T12:01:34.062Z,26.36
2018-06-22T12:06:12.679Z,25.85
2018-06-22T12:10:51.255Z,26.25
2018-06-22T12:15:29.730Z,26.15
2018-06-22T12:20:09.522Z,26.15
2018-06-22T12:24:48.029Z,26.20
2018-06-22T12:29:33.133Z,26.21
2018-06-22T12:34:11.716Z,25.81
2018-06-22T12:38:53.564Z,26.16
2018-06-22T12:43:32.270Z,25.55
2018-06-22T12:48:12.996Z,25.54
2018-06-22T12:52:51.574Z,25.70
2018-06-22T12:57:30.187Z,25.27
2018-06-22T13:02:08.686Z,25.41
2018-06-22T13:06:50.737Z,25.18
2018-06-22T13:11:29.242Z,24.86
2018-06-22T13:16:07.765Z,24.57
2018-06-22T13:20:46.366Z,25.21
2018-06-22T13:25:25.001Z,25.26
2018-06-22T13:30:07.078Z,24.85
2018-06-22T13:34:45.563Z,25.43
2018-06-22T13:39:25.208Z,25.64
2018-06-22T13:44:03.742Z,25.70
2018-06-22T13:48:45.767Z,25.61
2018-06-22T13:53:24.400Z,25.13
2018-06-22T13:58:03.084Z,24.33
2018-06-22T14:02:41.833Z,24.92
2018-06-22T14:07:22.042Z,24.95
2018-06-22T14:12:00.766Z,24.92
2018-06-22T14:16:43.390Z,25.28
2018-06-22T14:21:23.007Z,25.63
2018-06-22T14:26:02.717Z,25.44
2018-06-22T14:30:41.457Z,25.42
2018-06-22T14:35:19.993Z,25.43
2018-06-22T14:40:00.044Z,25.60
2018-06-22T14:44:38.705Z,25.90
2018-06-22T14:49:17.614Z,26.15
2018-06-22T14:54:02.494Z,26.28
2018-06-22T14:58:47.368Z,26.41
2018-06-22T15:03:31.593Z,26.39
2018-06-22T15:08:14.667Z,26.53
2018-06-22T15:12:53.283Z,26.10
2018-06-22T15:17:41.691Z,26.12
2018-06-22T15:22:20.303Z,25.89
2018-06-22T15:26:59.455Z,26.13
2018-06-22T15:31:37.964Z,26.07
2018-06-22T15:36:23.075Z,26.21
2018-06-22T15:41:06.960Z,26.09
2018-06-22T15:45:53.876Z,26.19
2018-06-22T15:50:37.604Z,26.16
2018-06-22T15:55:22.294Z,26.17
2018-06-22T16:00:01.137Z,25.87
2018-06-22T16:04:39.739Z,26.04
2018-06-22T16:09:22.515Z,26.12
2018-06-22T16:14:06.484Z,26.24
2018-06-22T16:18:50.838Z,26.11
2018-06-22T16:23:34.655Z,26.14
2018-06-22T16:28:16.467Z,26.19
2018-06-22T16:32:54.988Z,26.28
2018-06-22T16:37:34.691Z,26.24
2018-06-22T16:42:13.149Z,26.12
2018-06-22T16:46:55.686Z,26.11
2018-06-22T16:51:34.839Z,25.96
2018-06-22T16:56:14.530Z,25.87
2018-06-22T17:00:53.590Z,25.78
2018-06-22T17:05:37.651Z,25.85
2018-06-22T17:10:21.592Z,25.67
2018-06-22T17:15:05.515Z,25.71
2018-06-22T17:19:45.249Z,25.87
2018-06-22T17:24:23.875Z,25.91
2018-06-22T17:29:05.962Z,25.60
2018-06-22T17:33:44.698Z,25.60
2018-06-22T17:38:26.641Z,25.04
2018-06-22T17:43:05.295Z,25.04
2018-06-22T17:47:48.519Z,24.18
2018-06-22T17:52:27.069Z,23.92
2018-06-22T17:57:10.248Z,23.51
2018-06-22T18:01:54.967Z,23.40
2018-06-22T18:06:38.074Z,23.54
2018-06-22T18:11:21.813Z,24.03
2018-06-22T18:16:01.437Z,24.24
2018-06-22T18:20:39.962Z,24.16
2018-06-22T18:25:19.394Z,24.36
2018-06-22T18:29:57.991Z,24.22
2018-06-22T18:34:37.097Z,23.76
2018-06-22T18:39:15.690Z,24.07
2018-06-22T18:43:58.961Z,24.00
2018-06-22T18:48:37.538Z,24.15
2018-06-22T18:53:21.462Z,24.01
2018-06-22T18:58:05.771Z,22.13
2018-06-22T19:02:50.639Z,22.04
2018-06-22T19:07:29.343Z,22.21
2018-06-22T19:12:07.936Z,22.05
2018-06-22T19:16:46.573Z,22.44
2018-06-22T19:21:25.472Z,23.27
2018-06-22T19:26:04.071Z,23.68
2018-06-22T19:30:42.690Z,23.03
2018-06-22T19:35:21.312Z,22.08
2018-06-22T19:40:00.050Z,23.39
2018-06-22T19:44:43.836Z,22.41
2018-06-22T19:49:28.876Z,23.00
2018-06-22T19:54:08.686Z,23.02
2018-06-22T19:58:50.687Z,23.39
2018-06-22T20:03:29.964Z,23.74
2018-06-22T20:08:12.474Z,23.23
2018-06-22T20:12:51.174Z,23.14
2018-06-22T20:17:32.794Z,22.97
2018-06-22T20:22:11.208Z,22.75
2018-06-22T20:26:52.813Z,22.82
2018-06-22T20:31:36.773Z,23.40
2018-06-22T20:36:20.765Z,23.24
2018-06-22T20:41:04.689Z,22.98
2018-06-22T20:45:48.786Z,22.79
2018-06-22T20:50:32.290Z,23.23
2018-06-22T20:55:11.134Z,23.29
2018-06-22T20:59:50.373Z,23.17
2018-06-22T21:04:29.556Z,22.33
2018-06-22T21:09:10.259Z,21.53
2018-06-22T21:13:48.659Z,22.54
2018-06-22T21:18:27.354Z,22.59
2018-06-22T21:23:06.054Z,22.49
2018-06-22T21:27:50.953Z,22.66
2018-06-22T21:32:34.679Z,22.98
2018-06-22T21:37:24.166Z,23.23
2018-06-22T21:42:02.711Z,23.13
2018-06-22T21:46:42.375Z,23.13
2018-06-22T21:51:20.956Z,22.87
2018-06-22T21:56:00.749Z,23.00
2018-06-22T22:00:39.359Z,22.42
2018-06-22T22:05:18.980Z,21.39
2018-06-22T22:09:57.601Z,21.63
2018-06-22T22:14:36.110Z,21.82
2018-06-22T22:19:14.792Z,21.71
2018-06-22T22:23:53.341Z,21.37
2018-06-22T22:28:35.793Z,21.38
2018-06-22T22:33:14.234Z,21.43
2018-06-22T22:37:53.872Z,21.44
2018-06-22T22:42:32.403Z,21.46
2018-06-22T22:47:14.106Z,21.89
2018-06-22T22:51:52.608Z,21.81
2018-06-22T22:56:32.075Z,21.68
2018-06-22T23:01:10.377Z,21.69
2018-06-22T23:05:52.139Z,21.25
2018-06-22T23:10:30.671Z,21.25
2018-06-22T23:15:12.655Z,21.26
2018-06-22T23:19:51.154Z,21.07
2018-06-22T23:24:29.552Z,21.20
2018-06-22T23:29:08.136Z,21.05
2018-06-22T23:33:46.679Z,21.09
2018-06-22T23:38:29.029Z,21.13
2018-06-22T23:43:07.386Z,20.97
2018-06-22T23:47:49.518Z,21.17
2018-06-22T23:52:28.116Z,21.08
2018-06-22T23:57:07.762Z,21.17
